Time;durP1;ratioP1;P1;durP2;ratioP2;P2;SDS_P1;SDS_P2;PMS_P1;PMS_P2;Temp;Humidity;BMP_temperature;BMP_pressure;BME280_temperature;BME280_humidity;BME280_pressure;Samples;Min_cycle;Max_cycle;Signal;HPM_P1;HPM_P2
2021/03/15 00:00:51;;;;;;;1.50;0.63;;;6.10;85.70;;;;;;5045207;28;20061;-77
2021/03/15 00:03:17;;;;;;;0.32;0.30;;;6.00;85.80;;;;;;5027353;28;20039;-77
2021/03/15 00:05:43;;;;;;;0.73;0.63;;;6.00;85.80;;;;;;5060813;28;20057;-76
2021/03/15 00:08:09;;;;;;;1.23;0.63;;;6.00;85.80;;;;;;5043162;28;20048;-76
2021/03/15 00:10:36;;;;;;;1.13;0.80;;;6.00;85.90;;;;;;5056115;28;20507;-77
2021/03/15 00:13:02;;;;;;;1.48;0.65;;;6.00;85.90;;;;;;5037839;28;20068;-77
2021/03/15 00:15:28;;;;;;;0.70;0.65;;;6.00;85.90;;;;;;5038765;28;20044;-77
2021/03/15 00:17:54;;;;;;;1.23;0.77;;;6.00;86.00;;;;;;5059437;28;20040;-77
2021/03/15 00:20:21;;;;;;;1.30;0.70;;;6.00;86.00;;;;;;5029474;28;20446;-77
2021/03/15 00:22:48;;;;;;;0.95;0.80;;;6.00;86.10;;;;;;5046012;28;20036;-77
2021/03/15 00:25:15;;;;;;;1.65;0.75;;;6.10;86.20;;;;;;5072206;28;20094;-76
2021/03/15 00:27:41;;;;;;;1.20;0.55;;;6.00;86.20;;;;;;5072046;28;20033;-76
2021/03/15 00:30:09;;;;;;;1.35;0.70;;;6.00;86.20;;;;;;5047294;28;20051;-76
2021/03/15 00:32:36;;;;;;;1.88;0.70;;;6.00;86.30;;;;;;5042617;28;20049;-77
2021/03/15 00:35:04;;;;;;;1.70;0.77;;;6.10;86.40;;;;;;5051396;28;20053;-76
2021/03/15 00:37:30;;;;;;;0.70;0.68;;;6.00;86.40;;;;;;5050098;28;20053;-77
2021/03/15 00:39:55;;;;;;;0.73;0.50;;;6.00;86.40;;;;;;5053080;28;20045;-77
2021/03/15 00:42:21;;;;;;;0.57;0.50;;;6.00;86.40;;;;;;5054617;28;20041;-76
2021/03/15 00:44:47;;;;;;;0.55;0.38;;;6.00;86.40;;;;;;5056381;28;20064;-77
2021/03/15 00:47:12;;;;;;;2.13;0.55;;;6.10;86.50;;;;;;5048726;28;20037;-77
2021/03/15 00:49:38;;;;;;;0.63;0.50;;;6.10;86.50;;;;;;5068743;28;20043;-78
2021/03/15 00:52:04;;;;;;;1.13;0.50;;;6.00;86.50;;;;;;5037221;28;20052;-76
2021/03/15 00:54:31;;;;;;;1.15;0.50;;;6.10;86.60;;;;;;5033567;28;20045;-76
2021/03/15 00:56:57;;;;;;;1.60;0.70;;;6.00;86.60;;;;;;5035859;28;20056;-76
2021/03/15 00:59:23;;;;;;;0.30;0.30;;;6.00;86.70;;;;;;5039128;28;20526;-77
2021/03/15 01:01:49;;;;;;;0.75;0.47;;;6.00;86.70;;;;;;5071796;28;20092;-77
2021/03/15 01:04:15;;;;;;;1.00;0.50;;;6.00;86.80;;;;;;5073263;28;20509;-77
2021/03/15 01:06:42;;;;;;;1.20;0.60;;;6.00;86.80;;;;;;5031102;28;20045;-76
2021/03/15 01:09:09;;;;;;;0.93;0.60;;;6.00;86.90;;;;;;5071096;28;20117;-77
2021/03/15 01:11:36;;;;;;;1.20;0.40;;;6.00;87.00;;;;;;5049062;28;20048;-77
2021/03/15 01:14:02;;;;;;;0.88;0.57;;;6.00;87.00;;;;;;5065443;28;20049;-77
2021/03/15 01:16:28;;;;;;;1.65;0.55;;;6.00;87.10;;;;;;5027009;28;20037;-77
2021/03/15 01:18:53;;;;;;;0.77;0.50;;;6.00;87.10;;;;;;5028341;28;20156;-77
2021/03/15 01:21:19;;;;;;;2.05;0.60;;;6.00;87.10;;;;;;5072115;28;20075;-77
2021/03/15 01:23:45;;;;;;;0.65;0.50;;;6.00;87.20;;;;;;5052581;28;20052;-78
2021/03/15 01:26:11;;;;;;;0.55;0.40;;;6.00;87.20;;;;;;5051070;28;20059;-77
2021/03/15 01:28:36;;;;;;;1.55;0.50;;;5.90;87.10;;;;;;5049607;28;20037;-76
2021/03/15 01:31:02;;;;;;;1.00;0.50;;;6.00;87.20;;;;;;5051408;28;20037;-77
2021/03/15 01:33:28;;;;;;;0.73;0.40;;;6.00;87.30;;;;;;5052959;28;20049;-77
2021/03/15 01:35:53;;;;;;;1.42;0.40;;;5.90;87.30;;;;;;5031946;28;20089;-76
2021/03/15 01:38:19;;;;;;;1.48;0.50;;;6.00;87.40;;;;;;5065262;28;20037;-76
2021/03/15 01:40:45;;;;;;;2.03;0.82;;;6.00;87.40;;;;;;5044828;28;20067;-76
2021/03/15 01:43:11;;;;;;;1.55;0.60;;;5.90;87.40;;;;;;5029148;28;20068;-76
2021/03/15 01:45:37;;;;;;;1.30;0.63;;;6.00;87.50;;;;;;5031092;28;20102;-76
2021/03/15 01:48:05;;;;;;;0.40;0.40;;;6.00;87.60;;;;;;5065265;28;20037;-76
2021/03/15 01:50:31;;;;;;;0.68;0.40;;;6.00;88.20;;;;;;5065898;28;20502;-76
2021/03/15 01:52:58;;;;;;;0.35;0.35;;;5.90;87.60;;;;;;5048461;28;20065;-76
2021/03/15 01:55:25;;;;;;;0.93;0.50;;;6.00;87.70;;;;;;5048380;28;20033;-76
2021/03/15 01:57:52;;;;;;;0.47;0.40;;;6.00;87.80;;;;;;5072247;28;20037;-77
2021/03/15 02:00:19;;;;;;;0.77;0.30;;;6.00;87.80;;;;;;5055767;28;20064;-76
2021/03/15 02:02:50;;;;;;;0.70;0.47;;;6.00;87.90;;;;;;5056156;28;20040;-76
2021/03/15 02:05:16;;;;;;;0.40;0.40;;;6.00;87.90;;;;;;5071995;28;20048;-77
2021/03/15 02:07:42;;;;;;;0.98;0.40;;;6.00;87.90;;;;;;5072254;28;20033;-77
2021/03/15 02:10:08;;;;;;;0.52;0.45;;;6.00;87.90;;;;;;5068814;28;20132;-77
2021/03/15 02:13:07;;;;;;;1.10;0.40;;;6.00;88.00;;;;;;5069159;28;20044;-76
2021/03/15 02:15:55;;;;;;;0.85;0.50;;;6.00;88.10;;;;;;5061966;28;20455;-76
2021/03/15 02:18:41;;;;;;;0.50;0.50;;;5.90;88.10;;;;;;5051224;28;20072;-76
2021/03/15 02:21:33;;;;;;;0.98;0.52;;;5.90;88.00;;;;;;5068660;28;20128;-76
2021/03/15 02:24:25;;;;;;;0.40;0.40;;;5.90;88.10;;;;;;5051850;28;20102;-76
2021/03/15 02:27:14;;;;;;;0.30;0.30;;;5.80;88.10;;;;;;5033463;28;20398;-75
2021/03/15 02:30:12;;;;;;;0.88;0.40;;;5.90;88.10;;;;;;5067455;28;20483;-76
2021/03/15 02:33:12;;;;;;;1.13;0.60;;;6.00;88.30;;;;;;5070245;28;20101;-76
2021/03/15 02:35:39;;;;;;;0.45;0.45;;;6.00;88.30;;;;;;5067638;28;20048;-76
2021/03/15 02:38:08;;;;;;;0.30;0.30;;;6.00;88.20;;;;;;5044258;28;20041;-75
2021/03/15 02:40:44;;;;;;;0.50;0.38;;;5.90;88.20;;;;;;5066183;28;20064;-76
2021/03/15 02:43:18;;;;;;;0.32;0.30;;;6.00;88.30;;;;;;5044089;28;20079;-76
2021/03/15 02:45:45;;;;;;;0.65;0.40;;;6.00;88.30;;;;;;5059740;28;20383;-75
2021/03/15 02:48:12;;;;;;;0.32;0.20;;;6.00;88.40;;;;;;5040937;28;20049;-76
2021/03/15 02:50:41;;;;;;;0.20;0.20;;;6.00;88.40;;;;;;5055888;28;20098;-76
2021/03/15 02:53:10;;;;;;;0.20;0.20;;;6.00;88.50;;;;;;5042813;28;20087;-76
2021/03/15 02:55:37;;;;;;;0.15;0.15;;;6.10;88.60;;;;;;5074423;28;20041;-77
2021/03/15 02:58:04;;;;;;;0.20;0.20;;;6.00;88.60;;;;;;5055483;28;20072;-77
2021/03/15 03:00:31;;;;;;;0.40;0.32;;;6.00;88.60;;;;;;5073537;28;20065;-77
2021/03/15 03:02:58;;;;;;;0.43;0.30;;;6.00;88.60;;;;;;5073280;28;20055;-77
2021/03/15 03:05:24;;;;;;;0.20;0.20;;;6.00;88.60;;;;;;5055288;28;20100;-77
2021/03/15 03:07:52;;;;;;;0.20;0.10;;;6.00;88.70;;;;;;5075203;28;20021;-75
2021/03/15 03:10:22;;;;;;;0.20;0.20;;;6.00;88.70;;;;;;5070961;28;20071;-76
2021/03/15 03:12:51;;;;;;;0.20;0.20;;;6.00;88.80;;;;;;5067685;28;20041;-76
2021/03/15 03:15:23;;;;;;;0.20;0.20;;;5.90;88.80;;;;;;5045661;28;20116;-76
2021/03/15 03:17:54;;;;;;;0.20;0.20;;;6.00;88.90;;;;;;5063592;28;20052;-76
2021/03/15 03:20:22;;;;;;;0.43;0.20;;;6.00;88.90;;;;;;5030526;28;20506;-76
2021/03/15 03:22:51;;;;;;;0.32;0.20;;;6.00;88.90;;;;;;5049724;28;20076;-76
2021/03/15 03:25:21;;;;;;;0.13;0.13;;;6.00;88.90;;;;;;5066334;28;20496;-75
2021/03/15 03:27:54;;;;;;;0.10;0.10;;;6.00;89.00;;;;;;5043522;28;20108;-76
2021/03/15 03:30:25;;;;;;;0.20;0.20;;;6.00;89.00;;;;;;5066316;28;20037;-77
2021/03/15 03:32:55;;;;;;;0.10;0.10;;;5.90;88.90;;;;;;5031418;28;20407;-76
2021/03/15 03:35:21;;;;;;;0.22;0.22;;;5.90;88.90;;;;;;5066810;28;20080;-76
2021/03/15 03:37:48;;;;;;;0.50;0.30;;;5.90;88.90;;;;;;5009699;28;20050;-76
2021/03/15 03:40:15;;;;;;;0.28;0.25;;;6.00;89.00;;;;;;5006825;28;20045;-76
2021/03/15 03:42:42;;;;;;;1.15;0.50;;;5.90;88.90;;;;;;5023877;28;20050;-76
2021/03/15 03:45:09;;;;;;;0.43;0.40;;;5.90;88.90;;;;;;5006784;28;20037;-76
2021/03/15 03:47:37;;;;;;;0.20;0.20;;;5.90;88.90;;;;;;5005684;28;20042;-75
2021/03/15 03:50:06;;;;;;;0.40;0.40;;;5.90;88.90;;;;;;5020595;28;20034;-77
2021/03/15 03:52:32;;;;;;;0.57;0.30;;;5.90;88.90;;;;;;5021039;28;20030;-77
2021/03/15 03:55:06;;;;;;;0.40;0.30;;;6.00;89.00;;;;;;5005775;28;20058;-77
2021/03/15 03:57:34;;;;;;;1.10;0.40;;;6.00;89.10;;;;;;5003550;28;20050;-76
2021/03/15 04:00:06;;;;;;;0.40;0.40;;;6.00;89.00;;;;;;5019859;28;20500;-76
2021/03/15 04:02:32;;;;;;;;;;;6.00;89.00;;;;;;5018490;28;20092;-77
2021/03/15 04:05:03;;;;;;;0.20;0.20;;;6.00;88.90;;;;;;5017067;28;19913;-77
2021/03/15 04:07:29;;;;;;;;;;;6.00;88.80;;;;;;5000569;28;20076;-76
2021/03/15 04:10:06;;;;;;;0.55;0.30;;;5.90;88.70;;;;;;5055201;28;19968;-77
2021/03/15 04:12:33;;;;;;;0.60;0.40;;;6.00;88.70;;;;;;5057051;28;20395;-77
2021/03/15 04:15:03;;;;;;;1.20;0.50;;;6.00;88.70;;;;;;5036088;28;20037;-76
2021/03/15 04:17:36;;;;;;;0.45;0.38;;;6.00;88.70;;;;;;5057242;28;20052;-77
2021/03/15 04:20:05;;;;;;;0.50;0.50;;;6.00;88.80;;;;;;5022352;28;20076;-77
2021/03/15 04:22:35;;;;;;;0.60;0.50;;;6.00;88.80;;;;;;5034302;28;20045;-77
2021/03/15 04:25:02;;;;;;;1.00;0.60;;;6.00;88.80;;;;;;5019212;28;20091;-76
2021/03/15 04:27:31;;;;;;;1.13;0.60;;;5.90;88.80;;;;;;5053994;28;20044;-77
2021/03/15 04:29:58;;;;;;;1.10;0.73;;;6.00;88.80;;;;;;5053290;28;20377;-77
2021/03/15 04:32:26;;;;;;;2.35;0.60;;;6.00;88.80;;;;;;5032299;28;20083;-76
2021/03/15 04:34:54;;;;;;;1.33;0.70;;;6.00;88.80;;;;;;5051666;28;20037;-76
2021/03/15 04:37:21;;;;;;;0.57;0.50;;;6.00;88.90;;;;;;5033769;28;20029;-76
2021/03/15 04:39:48;;;;;;;0.52;0.50;;;6.00;88.90;;;;;;5051330;28;20527;-76
2021/03/15 04:42:16;;;;;;;1.10;0.52;;;6.00;88.90;;;;;;5015939;28;20499;-75
2021/03/15 04:44:42;;;;;;;1.55;0.70;;;6.10;88.90;;;;;;5030785;28;20044;-76
2021/03/15 04:47:09;;;;;;;1.10;0.57;;;6.00;88.90;;;;;;5013007;28;20045;-76
2021/03/15 04:49:38;;;;;;;2.58;1.20;;;6.00;88.90;;;;;;5033259;28;20055;-76
2021/03/15 04:52:05;;;;;;;1.30;0.80;;;6.00;88.90;;;;;;5014214;28;20040;-75
2021/03/15 04:54:31;;;;;;;1.85;0.80;;;6.00;88.90;;;;;;5032361;28;20470;-76
2021/03/15 04:56:59;;;;;;;0.73;0.60;;;6.00;88.90;;;;;;5032247;28;20136;-76
2021/03/15 04:59:27;;;;;;;1.90;0.90;;;6.10;88.90;;;;;;5051354;28;20048;-76
2021/03/15 05:01:54;;;;;;;1.77;0.80;;;6.10;88.90;;;;;;5028894;28;20033;-76
2021/03/15 05:04:22;;;;;;;3.20;0.95;;;6.10;88.90;;;;;;5031059;28;20095;-76
2021/03/15 05:06:50;;;;;;;1.65;0.68;;;6.10;89.00;;;;;;5030775;28;20087;-79
2021/03/15 05:09:16;;;;;;;2.00;0.70;;;6.00;89.00;;;;;;5052882;28;20037;-78
2021/03/15 05:11:43;;;;;;;1.20;0.85;;;6.00;89.10;;;;;;5054195;28;20581;-79
2021/03/15 05:14:11;;;;;;;1.67;0.80;;;6.00;89.10;;;;;;5054754;28;20040;-79
2021/03/15 05:16:39;;;;;;;1.30;0.70;;;5.90;89.10;;;;;;5052964;28;20139;-79
2021/03/15 05:19:07;;;;;;;1.38;0.70;;;5.90;89.10;;;;;;5053938;28;20041;-79
2021/03/15 05:21:35;;;;;;;0.77;0.22;;;5.90;89.20;;;;;;5036049;28;20052;-79
2021/03/15 05:24:03;;;;;;;1.73;0.70;;;5.90;89.30;;;;;;5036722;28;20499;-79
2021/03/15 05:26:32;;;;;;;1.25;0.60;;;6.00;89.40;;;;;;5054210;28;20045;-79
2021/03/15 05:29:00;;;;;;;1.13;0.70;;;6.00;89.40;;;;;;5054072;28;20045;-79
2021/03/15 05:31:28;;;;;;;0.90;0.55;;;5.90;89.30;;;;;;5035775;28;20440;-79
2021/03/15 05:33:59;;;;;;;1.20;0.50;;;5.90;89.40;;;;;;5053682;28;20112;-79
2021/03/15 05:36:27;;;;;;;1.95;0.55;;;5.90;89.30;;;;;;5052439;28;20041;-79
2021/03/15 05:38:54;;;;;;;1.75;0.65;;;5.90;89.40;;;;;;5053929;28;20073;-79
2021/03/15 05:41:40;;;;;;;0.70;0.40;;;5.90;89.40;;;;;;5053874;28;20045;-79
2021/03/15 05:44:29;;;;;;;1.88;0.60;;;5.90;89.40;;;;;;5052568;28;20037;-79
2021/03/15 05:47:24;;;;;;;1.70;0.47;;;5.90;89.40;;;;;;5019779;28;20486;-79
2021/03/15 05:50:10;;;;;;;1.42;0.50;;;5.90;89.40;;;;;;5054065;28;20029;-78
2021/03/15 05:53:00;;;;;;;1.20;0.70;;;5.90;89.40;;;;;;5018175;28;20052;-79
2021/03/15 05:55:58;;;;;;;0.50;0.50;;;5.80;89.40;;;;;;5053813;28;20037;-79
2021/03/15 05:58:51;;;;;;;1.17;0.60;;;5.80;90.00;;;;;;5053850;28;20060;-79
2021/03/15 06:01:39;;;;;;;1.90;0.70;;;5.70;89.40;;;;;;5053516;28;20041;-78
2021/03/15 06:04:41;;;;;;;1.73;1.05;;;5.70;89.50;;;;;;5053367;28;20041;-80
2021/03/15 06:07:08;;;;;;;0.70;0.40;;;5.60;89.60;;;;;;5053213;28;20041;-79
2021/03/15 06:09:52;;;;;;;1.13;0.47;;;5.60;89.60;;;;;;5053453;28;20037;-79
2021/03/15 06:12:25;;;;;;;1.13;0.40;;;5.60;89.80;;;;;;5045348;28;20101;-79
2021/03/15 06:14:54;;;;;;;0.63;0.28;;;5.50;89.80;;;;;;5058322;28;20041;-82
2021/03/15 06:17:22;;;;;;;0.45;0.40;;;5.60;89.90;;;;;;5057803;28;20045;-77
2021/03/15 06:19:48;;;;;;;0.52;0.30;;;5.70;90.00;;;;;;5016066;28;20045;-78
2021/03/15 06:22:15;;;;;;;0.93;0.60;;;5.60;89.90;;;;;;5000937;28;20423;-77
2021/03/15 06:24:45;;;;;;;1.50;0.50;;;5.70;90.20;;;;;;5019376;28;20068;-78
2021/03/15 06:27:11;;;;;;;1.10;0.50;;;5.70;89.80;;;;;;5002720;28;20048;-78
2021/03/15 06:29:37;;;;;;;0.65;0.40;;;5.70;89.60;;;;;;5019117;28;20049;-77
2021/03/15 06:32:03;;;;;;;0.50;0.40;;;5.80;89.60;;;;;;5018600;28;20124;-78
2021/03/15 06:34:37;;;;;;;0.68;0.60;;;5.80;89.50;;;;;;5019697;28;20057;-78
2021/03/15 06:37:04;;;;;;;2.28;0.60;;;5.90;89.40;;;;;;5001593;28;20041;-79
2021/03/15 06:39:35;;;;;;;1.00;0.55;;;5.80;89.30;;;;;;5020092;28;20084;-78
2021/03/15 06:42:01;;;;;;;0.75;0.57;;;5.80;89.30;;;;;;5018170;28;20049;-78
2021/03/15 06:44:27;;;;;;;0.88;0.60;;;5.90;89.20;;;;;;5016352;28;20038;-78
2021/03/15 06:46:55;;;;;;;0.93;0.50;;;5.90;89.20;;;;;;5018105;28;20068;-79
2021/03/15 06:49:24;;;;;;;1.25;0.80;;;6.00;89.20;;;;;;5019520;28;20042;-78
2021/03/15 06:52:08;;;;;;;0.47;0.47;;;6.00;89.10;;;;;;5033592;28;20183;-78
2021/03/15 06:54:34;;;;;;;2.60;0.75;;;6.00;89.00;;;;;;5049005;28;20033;-78
2021/03/15 06:57:17;;;;;;;1.75;0.80;;;6.00;88.90;;;;;;5050241;28;20052;-78
2021/03/15 06:59:46;;;;;;;1.38;0.80;;;6.10;89.10;;;;;;5048137;28;20113;-78
2021/03/15 07:02:19;;;;;;;2.05;0.93;;;6.10;89.00;;;;;;5009294;28;20121;-78
2021/03/15 07:04:44;;;;;;;2.30;0.90;;;6.20;89.00;;;;;;5025062;28;20125;-78
2021/03/15 07:07:10;;;;;;;2.30;1.10;;;6.20;88.90;;;;;;5025781;28;20046;-79
2021/03/15 07:09:36;;;;;;;1.85;1.23;;;6.20;88.80;;;;;;5008761;28;20046;-77
2021/03/15 07:12:03;;;;;;;2.00;1.20;;;6.30;88.80;;;;;;5023955;28;20514;-78
2021/03/15 07:14:29;;;;;;;3.53;1.35;;;6.20;88.70;;;;;;5019843;28;20054;-77
2021/03/15 07:16:59;;;;;;;3.03;0.93;;;6.30;88.70;;;;;;5000642;28;20080;-78
2021/03/15 07:19:25;;;;;;;1.55;0.90;;;6.30;88.70;;;;;;5012568;28;20052;-79
2021/03/15 07:21:54;;;;;;;3.72;0.98;;;6.30;88.70;;;;;;5009983;28;20054;-79
2021/03/15 07:24:20;;;;;;;8.32;1.33;;;6.40;88.60;;;;;;5010474;28;20046;-77
2021/03/15 07:26:46;;;;;;;2.58;0.90;;;6.40;88.50;;;;;;5010359;28;20049;-79
2021/03/15 07:29:13;;;;;;;2.50;0.90;;;6.50;88.50;;;;;;5010613;28;20381;-78
2021/03/15 07:31:42;;;;;;;3.05;0.90;;;6.50;88.50;;;;;;4991697;28;20531;-78
2021/03/15 07:34:13;;;;;;;1.20;0.85;;;6.60;88.40;;;;;;5015792;28;20391;-78
2021/03/15 07:37:03;;;;;;;3.05;0.70;;;6.70;88.30;;;;;;5032368;28;20037;-78
2021/03/15 07:39:29;;;;;;;1.35;0.50;;;6.70;88.30;;;;;;5023996;28;20029;-76
2021/03/15 07:41:58;;;;;;;1.80;0.90;;;6.70;88.20;;;;;;5041328;28;20060;-75
2021/03/15 07:44:28;;;;;;;1.88;0.90;;;6.70;88.20;;;;;;5055329;28;20060;-77
2021/03/15 07:47:00;;;;;;;1.58;0.70;;;6.70;88.20;;;;;;5031495;28;20028;-76
2021/03/15 07:49:28;;;;;;;1.55;0.68;;;6.60;88.20;;;;;;5031780;28;20045;-77
2021/03/15 07:51:58;;;;;;;2.60;0.80;;;6.60;88.20;;;;;;5052439;28;20052;-76
2021/03/15 07:54:25;;;;;;;0.52;0.50;;;6.70;88.50;;;;;;5031959;28;20079;-76
2021/03/15 07:57:15;;;;;;;2.25;0.90;;;6.70;88.50;;;;;;5033367;28;20117;-77
2021/03/15 07:59:42;;;;;;;1.33;0.60;;;6.80;88.50;;;;;;5051442;28;20041;-79
2021/03/15 08:02:14;;;;;;;3.03;0.80;;;6.90;88.20;;;;;;5031778;28;20053;-75
2021/03/15 08:04:40;;;;;;;3.15;0.90;;;7.10;88.20;;;;;;5031923;28;20053;-77
2021/03/15 08:07:06;;;;;;;3.75;0.90;;;7.20;88.50;;;;;;5052091;28;20444;-78
2021/03/15 08:09:32;;;;;;;1.10;0.50;;;7.30;87.60;;;;;;5051753;28;20091;-78
2021/03/15 08:11:58;;;;;;;3.20;0.85;;;7.30;87.40;;;;;;5047802;28;20038;-79
2021/03/15 08:14:26;;;;;;;6.25;1.00;;;7.50;87.30;;;;;;5051541;28;20041;-77
2021/03/15 08:16:56;;;;;;;3.47;0.93;;;7.50;87.00;;;;;;5051210;28;20042;-77
2021/03/15 08:19:23;;;;;;;3.60;0.90;;;7.50;86.80;;;;;;5034473;28;20175;-76
2021/03/15 08:21:49;;;;;;;2.38;0.88;;;7.50;86.80;;;;;;5036045;28;20079;-77
2021/03/15 08:24:16;;;;;;;3.70;0.70;;;7.50;86.80;;;;;;5051381;28;20087;-77
2021/03/15 08:26:47;;;;;;;6.00;1.00;;;7.40;86.90;;;;;;5051321;28;20049;-76
2021/03/15 08:29:15;;;;;;;3.83;1.05;;;7.50;87.00;;;;;;5031233;28;20033;-78
2021/03/15 08:31:46;;;;;;;8.80;1.40;;;7.50;86.80;;;;;;5017224;28;20045;-77
2021/03/15 08:34:14;;;;;;;3.28;0.80;;;7.60;86.50;;;;;;5029311;28;20443;-79
2021/03/15 08:36:42;;;;;;;3.00;0.77;;;7.60;86.60;;;;;;5042994;28;20063;-77
2021/03/15 08:39:36;;;;;;;4.18;0.93;;;7.70;86.50;;;;;;5040774;28;20041;-77
2021/03/15 08:42:23;;;;;;;4.00;1.35;;;7.70;86.20;;;;;;5049316;28;20053;-74
2021/03/15 08:44:49;;;;;;;3.70;0.95;;;7.90;85.60;;;;;;5036674;28;20045;-76
2021/03/15 08:47:50;;;;;;;3.22;0.85;;;7.90;85.30;;;;;;5053033;28;20448;-77
2021/03/15 08:50:48;;;;;;;1.40;0.55;;;7.90;85.20;;;;;;5017568;28;20048;-76
2021/03/15 08:53:44;;;;;;;2.75;0.50;;;7.90;84.90;;;;;;5054215;28;20037;-75
2021/03/15 08:56:33;;;;;;;2.22;0.73;;;7.90;84.90;;;;;;5054605;28;20140;-75
2021/03/15 08:59:01;;;;;;;2.92;0.60;;;7.90;84.90;;;;;;5037296;28;20529;-77
2021/03/15 09:01:50;;;;;;;2.17;0.70;;;7.90;84.90;;;;;;5036294;28;20049;-76
2021/03/15 09:04:40;;;;;;;2.47;0.63;;;8.00;85.10;;;;;;5036466;28;20052;-76
2021/03/15 09:07:42;;;;;;;2.40;0.50;;;8.10;84.70;;;;;;5056988;28;20103;-76
2021/03/15 09:10:35;;;;;;;2.30;0.60;;;8.20;84.10;;;;;;5020788;28;20029;-76
2021/03/15 09:13:26;;;;;;;1.75;0.50;;;8.30;83.60;;;;;;5040902;28;20101;-79
2021/03/15 09:15:58;;;;;;;0.82;0.38;;;8.30;83.40;;;;;;5063344;28;20116;-77
2021/03/15 09:18:45;;;;;;;1.70;0.60;;;8.30;83.50;;;;;;5056287;28;20419;-77
2021/03/15 09:21:46;;;;;;;0.55;0.28;;;8.30;83.40;;;;;;5055984;28;20475;-78
2021/03/15 09:24:35;;;;;;;2.40;0.52;;;8.40;83.40;;;;;;5039445;28;20037;-76
2021/03/15 09:27:06;;;;;;;1.73;0.50;;;8.30;83.00;;;;;;5054287;28;20110;-77
2021/03/15 09:29:36;;;;;;;0.68;0.40;;;8.40;83.10;;;;;;5060066;28;20033;-76
2021/03/15 09:32:07;;;;;;;1.10;0.43;;;8.40;83.30;;;;;;5019900;28;20503;-77
2021/03/15 09:34:35;;;;;;;1.38;0.50;;;8.40;83.40;;;;;;5038914;28;20041;-82
2021/03/15 09:37:03;;;;;;;1.67;0.55;;;8.50;83.50;;;;;;5036573;28;20032;-79
2021/03/15 09:39:31;;;;;;;3.65;0.85;;;8.60;83.20;;;;;;5038107;28;20429;-78
2021/03/15 09:41:58;;;;;;;0.60;0.43;;;8.60;82.90;;;;;;5022856;28;20033;-77
2021/03/15 09:44:29;;;;;;;4.18;0.85;;;8.60;82.70;;;;;;5035193;28;20041;-75
2021/03/15 09:46:58;;;;;;;3.22;0.35;;;8.60;82.50;;;;;;5020683;28;20128;-81
2021/03/15 09:49:43;;;;;;;3.05;0.50;;;8.70;82.50;;;;;;5038028;28;20453;-80
2021/03/15 09:52:15;;;;;;;1.67;0.57;;;8.70;82.30;;;;;;5033777;28;20041;-77
2021/03/15 09:54:44;;;;;;;1.85;0.60;;;8.80;82.10;;;;;;5027874;28;20055;-82
2021/03/15 09:57:11;;;;;;;1.95;0.47;;;8.80;81.70;;;;;;5035610;28;20067;-75
2021/03/15 09:59:37;;;;;;;2.42;0.70;;;8.80;81.60;;;;;;5036516;28;20079;-76
2021/03/15 10:02:05;;;;;;;0.98;0.50;;;8.80;81.60;;;;;;5036725;28;20171;-77
2021/03/15 10:04:34;;;;;;;2.83;0.68;;;8.90;81.50;;;;;;5042297;28;20052;-78
2021/03/15 10:07:02;;;;;;;1.75;0.70;;;8.70;81.20;;;;;;5042980;28;20087;-78
2021/03/15 10:09:30;;;;;;;2.38;0.70;;;8.70;81.80;;;;;;5039395;28;20037;-76
2021/03/15 10:11:56;;;;;;;1.27;0.52;;;8.60;81.10;;;;;;5059479;28;20075;-77
2021/03/15 10:14:24;;;;;;;2.25;0.43;;;8.40;81.50;;;;;;5041790;28;20033;-76
2021/03/15 10:16:54;;;;;;;1.67;0.40;;;8.40;81.70;;;;;;5039409;28;20017;-77
2021/03/15 10:19:25;;;;;;;1.30;0.40;;;8.40;81.90;;;;;;5057968;28;20043;-76
2021/03/15 10:21:54;;;;;;;1.90;0.50;;;8.40;81.80;;;;;;5038709;28;20060;-77
2021/03/15 10:24:36;;;;;;;3.00;0.63;;;8.50;82.00;;;;;;5015249;28;20034;-79
2021/03/15 10:27:02;;;;;;;2.08;0.77;;;8.60;81.50;;;;;;5017775;28;20041;-78
2021/03/15 10:29:29;;;;;;;2.53;0.60;;;8.70;81.20;;;;;;5014981;28;20568;-81
2021/03/15 10:32:00;;;;;;;1.05;0.47;;;8.70;81.10;;;;;;5016999;28;20054;-79
2021/03/15 10:34:26;;;;;;;1.75;0.63;;;8.70;80.90;;;;;;5011126;28;20050;-79
2021/03/15 10:36:52;;;;;;;1.58;0.55;;;8.80;80.70;;;;;;4999414;28;20034;-77
2021/03/15 10:39:20;;;;;;;1.63;0.60;;;8.90;80.50;;;;;;4995714;28;20038;-76
2021/03/15 10:41:47;;;;;;;2.42;0.45;;;9.00;80.30;;;;;;4998539;28;20050;-78
2021/03/15 10:44:13;;;;;;;1.75;0.70;;;9.00;80.10;;;;;;5012542;28;20169;-78
2021/03/15 10:46:54;;;;;;;3.92;1.05;;;9.00;79.90;;;;;;4995380;28;20120;-77
2021/03/15 10:49:25;;;;;;;2.63;0.73;;;9.00;79.60;;;;;;5011652;28;20504;-78
2021/03/15 10:51:53;;;;;;;3.33;1.17;;;8.90;79.50;;;;;;4996116;28;20488;-79
2021/03/15 10:54:35;;;;;;;2.47;0.80;;;8.80;79.70;;;;;;4993336;28;20077;-77
2021/03/15 10:57:22;;;;;;;1.83;0.60;;;8.70;79.80;;;;;;5012028;28;20076;-79
2021/03/15 10:59:50;;;;;;;3.78;0.68;;;8.70;79.60;;;;;;4995015;28;20053;-76
2021/03/15 11:02:23;;;;;;;2.10;0.50;;;8.60;79.90;;;;;;5011208;28;20478;-76
2021/03/15 11:04:52;;;;;;;1.75;0.55;;;8.70;80.10;;;;;;5013141;28;20068;-78
2021/03/15 11:07:36;;;;;;;3.88;0.90;;;8.80;80.10;;;;;;5014433;28;20637;-77
2021/03/15 11:10:06;;;;;;;2.25;0.70;;;9.00;79.70;;;;;;5014795;28;20057;-77
2021/03/15 11:12:49;;;;;;;2.80;0.70;;;9.10;79.10;;;;;;5017651;28;20062;-77
2021/03/15 11:15:22;;;;;;;2.28;0.50;;;9.20;78.80;;;;;;5011417;28;20053;-80
2021/03/15 11:18:19;;;;;;;2.72;0.65;;;9.40;78.60;;;;;;5014022;28;20065;-82
2021/03/15 11:20:53;;;;;;;1.25;0.65;;;9.50;78.30;;;;;;5015518;28;20156;-75
2021/03/15 11:23:39;;;;;;;0.75;0.60;;;9.60;77.70;;;;;;5011318;28;20125;-75
2021/03/15 11:26:11;;;;;;;4.20;0.93;;;9.70;77.20;;;;;;5043971;28;20040;-75
2021/03/15 11:28:52;;;;;;;5.35;1.00;;;9.60;77.00;;;;;;5034023;28;20082;-75
2021/03/15 11:31:29;;;;;;;3.58;1.00;;;9.60;76.60;;;;;;5035084;28;20082;-75
2021/03/15 11:33:59;;;;;;;2.58;0.77;;;9.50;76.80;;;;;;5033031;28;20036;-76
2021/03/15 11:36:26;;;;;;;2.63;0.77;;;9.30;76.80;;;;;;5055241;28;20037;-76
2021/03/15 11:38:56;;;;;;;3.03;0.60;;;9.20;77.20;;;;;;5037035;28;20528;-76
2021/03/15 11:41:24;;;;;;;3.17;0.90;;;9.10;77.50;;;;;;5053737;28;20491;-74
2021/03/15 11:43:50;;;;;;;1.90;0.60;;;9.10;77.50;;;;;;5052532;28;20127;-75
2021/03/15 11:46:16;;;;;;;2.22;0.60;;;9.10;77.70;;;;;;5053486;28;20483;-75
2021/03/15 11:48:43;;;;;;;2.80;0.70;;;9.30;77.30;;;;;;5051459;28;20033;-75
2021/03/15 11:51:11;;;;;;;2.47;0.60;;;9.20;77.20;;;;;;5031991;28;20057;-76
2021/03/15 11:53:37;;;;;;;2.20;0.90;;;9.10;77.40;;;;;;5015327;28;20558;-75
2021/03/15 11:56:03;;;;;;;5.05;1.20;;;9.40;77.70;;;;;;5034398;28;20045;-75
2021/03/15 11:58:29;;;;;;;3.10;0.82;;;9.50;77.10;;;;;;5056849;28;20041;-78
2021/03/15 12:00:55;;;;;;;4.55;0.93;;;9.60;76.90;;;;;;5057294;28;20128;-77
2021/03/15 12:03:24;;;;;;;6.45;1.30;;;9.70;76.70;;;;;;5016663;28;20483;-77
2021/03/15 12:05:49;;;;;;;3.90;1.10;;;9.70;76.00;;;;;;5034189;28;20041;-77
2021/03/15 12:08:15;;;;;;;4.13;1.00;;;9.80;76.10;;;;;;5032952;28;20052;-77
2021/03/15 12:10:43;;;;;;;3.03;0.80;;;9.70;76.10;;;;;;5053975;28;20095;-78
2021/03/15 12:13:09;;;;;;;2.75;0.85;;;9.70;76.30;;;;;;5033567;28;20128;-77
2021/03/15 12:15:36;;;;;;;4.15;1.20;;;9.60;76.40;;;;;;5033381;28;20045;-77
2021/03/15 12:18:02;;;;;;;7.68;1.40;;;9.40;76.70;;;;;;5052025;28;20084;-75
2021/03/15 12:20:28;;;;;;;1.98;0.70;;;9.20;77.20;;;;;;5055435;28;20041;-76
2021/03/15 12:22:54;;;;;;;3.85;1.25;;;9.00;78.20;;;;;;5035021;28;20033;-76
2021/03/15 12:25:20;;;;;;;2.50;0.73;;;9.10;78.50;;;;;;5055262;28;20029;-76
2021/03/15 12:27:46;;;;;;;3.58;0.77;;;9.20;78.20;;;;;;5033950;28;20364;-77
2021/03/15 12:30:14;;;;;;;2.90;0.80;;;9.30;78.20;;;;;;5036447;28;20052;-81
2021/03/15 12:32:39;;;;;;;3.10;0.93;;;9.30;78.20;;;;;;5035892;28;20040;-78
2021/03/15 12:35:06;;;;;;;1.70;0.55;;;9.30;78.30;;;;;;5026448;28;20037;-78
2021/03/15 12:37:32;;;;;;;1.45;0.60;;;9.30;78.50;;;;;;5042481;28;20037;-79
2021/03/15 12:39:57;;;;;;;3.58;0.77;;;9.40;78.60;;;;;;5042948;28;20366;-79
2021/03/15 12:42:23;;;;;;;3.40;0.70;;;9.60;78.30;;;;;;5020753;28;20124;-79
2021/03/15 12:44:49;;;;;;;2.83;0.50;;;9.60;78.10;;;;;;5038453;28;20590;-77
2021/03/15 12:47:15;;;;;;;3.08;0.90;;;9.60;77.80;;;;;;5038771;28;20030;-76
2021/03/15 12:49:41;;;;;;;4.95;0.63;;;9.50;77.90;;;;;;5036241;28;20112;-78
2021/03/15 12:52:07;;;;;;;2.95;0.70;;;9.50;78.00;;;;;;5037390;28;20033;-76
2021/03/15 12:54:34;;;;;;;2.47;0.50;;;9.40;78.00;;;;;;5057269;28;20044;-75
2021/03/15 12:56:59;;;;;;;1.60;0.45;;;9.30;78.20;;;;;;5054242;28;20048;-76
2021/03/15 12:59:25;;;;;;;2.92;0.82;;;9.10;78.20;;;;;;5054540;28;20025;-76
2021/03/15 13:01:54;;;;;;;0.90;0.43;;;8.90;78.80;;;;;;5016972;28;20050;-73
2021/03/15 13:04:19;;;;;;;1.90;0.60;;;8.60;79.30;;;;;;5035263;28;20505;-75
2021/03/15 13:06:48;;;;;;;1.63;0.35;;;8.40;80.10;;;;;;5059562;28;20048;-75
2021/03/15 13:09:15;;;;;;;1.98;0.55;;;8.20;80.60;;;;;;5021168;28;20048;-76
2021/03/15 13:11:40;;;;;;;0.43;0.30;;;8.00;80.90;;;;;;5035881;28;20103;-76
2021/03/15 13:14:09;;;;;;;1.83;0.30;;;7.90;81.40;;;;;;5033180;28;20038;-76
2021/03/15 13:16:35;;;;;;;3.03;0.47;;;7.80;81.70;;;;;;4992499;28;20042;-78